Time;durP1;ratioP1;P1;durP2;ratioP2;P2;SDS_P1;SDS_P2;PMS_P1;PMS_P2;Temp;Humidity;BMP_temperature;BMP_pressure;BME280_temperature;BME280_humidity;BME280_pressure;Samples;Min_cycle;Max_cycle;Signal;HPM_P1;HPM_P2
2022/12/13 00:00:25;;;;;;;;;;;;;;;;;;1027773;28;19910;-76
2022/12/13 00:00:56;;;;;;;;;;;;;;;;;;1031580;28;20441;-75
2022/12/13 00:01:26;;;;;;;;;;;;;;;;;;1031010;28;20005;-77
2022/12/13 00:01:57;;;;;;;;;;;;;;;;;;1032101;28;20463;-76
2022/12/13 00:02:28;;;;;;;;;;;;;;;;;;1027577;28;19914;-77
2022/12/13 00:02:59;;;;;;;;;;;;;;;;;;1027539;28;19961;-75
2022/12/13 00:03:30;;;;;;;;;;;;;;;;;;1027712;28;19926;-76
2022/12/13 00:04:01;;;;;;;;;;;;;;;;;;1027545;28;20001;-77
2022/12/13 00:04:32;;;;;;;;;;;;;;;;;;1031970;28;20448;-77
2022/12/13 00:05:02;;;;;;;;;;;;;;;;;;1027437;28;19917;-76
2022/12/13 00:05:33;;;;;;;;;;;;;;;;;;1028208;28;19910;-75
2022/12/13 00:06:04;;;;;;;;;;;;;;;;;;1027535;28;20517;-75
2022/12/13 00:06:35;;;;;;;;;;;;;;;;;;1028126;28;19910;-76
2022/12/13 00:07:06;;;;;;;;;;;;;;;;;;1028248;28;19940;-76
2022/12/13 00:07:37;;;;;;;;;;;;;;;;;;1027847;28;19918;-77
2022/12/13 00:08:08;;;;;;;;;;;;;;;;;;1031556;28;19996;-77
2022/12/13 00:08:40;;;;;;;;;;;;;;;;;;1031885;28;19910;-76
2022/12/13 00:09:11;;;;;;;;;;;;;;;;;;1032416;28;20301;-76
2022/12/13 00:09:42;;;;;;;;;;;;;;;;;;1032156;28;20336;-76
2022/12/13 00:10:13;;;;;;;;;;;;;;;;;;1031491;28;20206;-76
2022/12/13 00:10:43;;;;;;;;;;;;;;;;;;1031354;28;19984;-77
2022/12/13 00:11:14;;;;;;;;;;;;;;;;;;1031219;28;19910;-77
2022/12/13 00:11:45;;;;;;;;;;;;;;;;;;1027380;28;19910;-77
2022/12/13 00:12:16;;;;;;;;;;;;;;;;;;1028092;28;19910;-77
2022/12/13 00:12:47;;;;;;;;;;;;;;;;;;1031529;28;19955;-76
2022/12/13 00:13:18;;;;;;;;;;;;;;;;;;1027505;28;19910;-75
2022/12/13 00:13:49;;;;;;;;;;;;;;;;;;1035473;28;19906;-75
2022/12/13 00:14:20;;;;;;;;;;;;;;;;;;1033937;28;20368;-77
2022/12/13 00:14:50;;;;;;;;;;;;;;;;;;1031592;28;19956;-76
2022/12/13 00:15:21;;;;;;;;;;;;;;;;;;1031794;28;19918;-77
2022/12/13 00:15:52;;;;;;;;;;;;;;;;;;1035420;28;20378;-75
2022/12/13 00:16:23;;;;;;;;;;;;;;;;;;1031242;28;19913;-77
2022/12/13 00:16:54;;;;;;;;;;;;;;;;;;1027590;28;20322;-76
2022/12/13 00:17:25;;;;;;;;;;;;;;;;;;1034868;28;20016;-77
2022/12/13 00:17:56;;;;;;;;;;;;;;;;;;1028341;28;19910;-77
2022/12/13 00:18:26;;;;;;;;;;;;;;;;;;1031732;28;20357;-76
2022/12/13 00:18:57;;;;;;;;;;;;;;;;;;1035094;28;20143;-76
2022/12/13 00:19:28;;;;;;;;;;;;;;;;;;1035541;28;20353;-77
2022/12/13 00:19:59;;;;;;;;;;;;;;;;;;1031785;28;19997;-77
2022/12/13 00:20:30;;;;;;;;;;;;;;;;;;1031857;28;19910;-77
2022/12/13 00:21:01;;;;;;;;;;;;;;;;;;1029409;28;19910;-78
2022/12/13 00:21:32;;;;;;;;;;;;;;;;;;1031095;28;19914;-76
2022/12/13 00:22:03;;;;;;;;;;;;;;;;;;1031395;28;19909;-76
2022/12/13 00:22:33;;;;;;;;;;;;;;;;;;1032072;28;19973;-76
2022/12/13 00:23:04;;;;;;;;;;;;;;;;;;1031518;28;20284;-77
2022/12/13 00:23:35;;;;;;;;;;;;;;;;;;1027301;28;19961;-75
2022/12/13 00:24:06;;;;;;;;;;;;;;;;;;1027439;28;19907;-76
2022/12/13 00:24:37;;;;;;;;;;;;;;;;;;1027421;28;19976;-77
2022/12/13 00:25:08;;;;;;;;;;;;;;;;;;1032006;28;20292;-77
2022/12/13 00:25:39;;;;;;;;;;;;;;;;;;1031628;28;19918;-76
2022/12/13 00:26:10;;;;;;;;;;;;;;;;;;1031536;28;19984;-75
2022/12/13 00:26:41;;;;;;;;;;;;;;;;;;1031111;28;20199;-74
2022/12/13 00:27:11;;;;;;;;;;;;;;;;;;1031543;28;19958;-76
2022/12/13 00:27:42;;;;;;;;;;;;;;;;;;1031819;28;19937;-76
2022/12/13 00:28:13;;;;;;;;;;;;;;;;;;1035292;28;20420;-78
2022/12/13 00:28:46;;;;;;;;;;;;;;;;;;1027330;28;19997;-78
2022/12/13 00:29:17;;;;;;;;;;;;;;;;;;1027208;28;19932;-76
2022/12/13 00:29:48;;;;;;;;;;;;;;;;;;1027286;28;20214;-76
2022/12/13 00:30:19;;;;;;;;;;;;;;;;;;1028388;28;19917;-77
2022/12/13 00:30:50;;;;;;;;;;;;;;;;;;1028096;28;19964;-76
2022/12/13 00:31:21;;;;;;;;;;;;;;;;;;1031410;28;20266;-76
2022/12/13 00:31:52;;;;;;;;;;;;;;;;;;1031398;28;19917;-79
2022/12/13 00:32:23;;;;;;;;;;;;;;;;;;1031471;28;20009;-75
2022/12/13 00:32:53;;;;;;;;;;;;;;;;;;1028196;28;19918;-78
2022/12/13 00:33:24;;;;;;;;;;;;;;;;;;1031705;28;19909;-76
2022/12/13 00:33:55;;;;;;;;;;;;;;;;;;1031612;28;20332;-76
2022/12/13 00:34:26;;;;;;;;;;;;;;;;;;1027475;28;19910;-77
2022/12/13 00:34:57;;;;;;;;;;;;;;;;;;1027408;28;19910;-76
2022/12/13 00:35:28;;;;;;;;;;;;;;;;;;1030953;28;19964;-77
2022/12/13 00:35:59;;;;;;;;;;;;;;;;;;1031797;28;19917;-78
2022/12/13 00:36:30;;;;;;;;;;;;;;;;;;1031085;28;20254;-77
2022/12/13 00:37:00;;;;;;;;;;;;;;;;;;1031076;28;20084;-77
2022/12/13 00:37:31;;;;;;;;;;;;;;;;;;1036964;28;19913;-77
2022/12/13 00:38:02;;;;;;;;;;;;;;;;;;1035369;28;20365;-76
2022/12/13 00:38:33;;;;;;;;;;;;;;;;;;1035205;28;19910;-77
2022/12/13 00:39:04;;;;;;;;;;;;;;;;;;1030909;28;20280;-77
2022/12/13 00:39:35;;;;;;;;;;;;;;;;;;1027481;28;19992;-78
2022/12/13 00:40:06;;;;;;;;;;;;;;;;;;1027434;28;20538;-77
2022/12/13 00:40:37;;;;;;;;;;;;;;;;;;1027818;28;19914;-78
2022/12/13 00:41:07;;;;;;;;;;;;;;;;;;1031315;28;20004;-78
2022/12/13 00:41:39;;;;;;;;;;;;;;;;;;1031234;28;19949;-78
2022/12/13 00:42:10;;;;;;;;;;;;;;;;;;1035270;28;19921;-77
2022/12/13 00:42:41;;;;;;;;;;;;;;;;;;1035445;28;20009;-77
2022/12/13 00:43:12;;;;;;;;;;;;;;;;;;1038552;28;19939;-76
2022/12/13 00:43:42;;;;;;;;;;;;;;;;;;1039388;28;19913;-76
2022/12/13 00:44:13;;;;;;;;;;;;;;;;;;1035348;28;19910;-76
2022/12/13 00:44:44;;;;;;;;;;;;;;;;;;1031384;28;20419;-76
2022/12/13 00:45:15;;;;;;;;;;;;;;;;;;1035574;28;19920;-78
2022/12/13 00:45:46;;;;;;;;;;;;;;;;;;1035728;28;19975;-78
2022/12/13 00:46:17;;;;;;;;;;;;;;;;;;1039795;28;19928;-76
2022/12/13 00:46:50;;;;;;;;;;;;;;;;;;1039913;28;19909;-77
2022/12/13 00:47:21;;;;;;;;;;;;;;;;;;1035075;28;20027;-78
2022/12/13 00:47:52;;;;;;;;;;;;;;;;;;1035274;28;19967;-76
2022/12/13 00:48:23;;;;;;;;;;;;;;;;;;1035507;28;19945;-77
2022/12/13 00:48:53;;;;;;;;;;;;;;;;;;1030730;28;19913;-77
2022/12/13 00:49:24;;;;;;;;;;;;;;;;;;1037702;28;20008;-76
2022/12/13 00:49:55;;;;;;;;;;;;;;;;;;1039226;28;20432;-76
2022/12/13 00:50:26;;;;;;;;;;;;;;;;;;1035308;28;19923;-77
2022/12/13 00:50:57;;;;;;;;;;;;;;;;;;1035435;28;19924;-76
2022/12/13 00:51:28;;;;;;;;;;;;;;;;;;1035559;28;20645;-77
2022/12/13 00:51:59;;;;;;;;;;;;;;;;;;1031447;28;19922;-77
2022/12/13 00:52:30;;;;;;;;;;;;;;;;;;1035504;28;19979;-76
2022/12/13 00:53:00;;;;;;;;;;;;;;;;;;1035369;28;20008;-77
2022/12/13 00:53:31;;;;;;;;;;;;;;;;;;1036135;28;19929;-77
2022/12/13 00:54:02;;;;;;;;;;;;;;;;;;1035477;28;19920;-77
2022/12/13 00:54:33;;;;;;;;;;;;;;;;;;1031517;28;19921;-78
2022/12/13 00:55:04;;;;;;;;;;;;;;;;;;1035134;28;20347;-75
2022/12/13 00:55:35;;;;;;;;;;;;;;;;;;1035628;28;19957;-79
2022/12/13 00:56:06;;;;;;;;;;;;;;;;;;1035504;28;19914;-77
2022/12/13 00:56:36;;;;;;;;;;;;;;;;;;1035440;28;19913;-76
2022/12/13 00:57:07;;;;;;;;;;;;;;;;;;1031090;28;20565;-78
2022/12/13 00:57:38;;;;;;;;;;;;;;;;;;1029136;28;19921;-78
2022/12/13 00:58:09;;;;;;;;;;;;;;;;;;1031173;28;20276;-80
2022/12/13 00:58:40;;;;;;;;;;;;;;;;;;1031429;28;19992;-76
2022/12/13 00:59:11;;;;;;;;;;;;;;;;;;1031244;28;19942;-76
2022/12/13 00:59:42;;;;;;;;;;;;;;;;;;1030839;28;19906;-77
2022/12/13 01:00:13;;;;;;;;;;;;;;;;;;1031087;28;19906;-77
2022/12/13 01:00:45;;;;;;;;;;;;;;;;;;1031212;28;19973;-76
2022/12/13 01:01:16;;;;;;;;;;;;;;;;;;1031258;28;20036;-79
2022/12/13 01:01:46;;;;;;;;;;;;;;;;;;1031243;28;19910;-76
2022/12/13 01:02:17;;;;;;;;;;;;;;;;;;1031642;28;19982;-77
2022/12/13 01:02:48;;;;;;;;;;;;;;;;;;1031003;28;19914;-77
2022/12/13 01:03:19;;;;;;;;;;;;;;;;;;1035151;28;19909;-76
2022/12/13 01:03:50;;;;;;;;;;;;;;;;;;1031225;28;19954;-77
2022/12/13 01:04:21;;;;;;;;;;;;;;;;;;1035361;28;19977;-77
2022/12/13 01:04:52;;;;;;;;;;;;;;;;;;1035027;28;20431;-78
2022/12/13 01:05:23;;;;;;;;;;;;;;;;;;1035320;28;19910;-77
2022/12/13 01:05:54;;;;;;;;;;;;;;;;;;1032562;28;19910;-78
2022/12/13 01:06:24;;;;;;;;;;;;;;;;;;1035450;28;19913;-77
2022/12/13 01:06:55;;;;;;;;;;;;;;;;;;1035211;28;19933;-77
2022/12/13 01:07:26;;;;;;;;;;;;;;;;;;1035614;28;19909;-77
2022/12/13 01:07:57;;;;;;;;;;;;;;;;;;1034889;28;19909;-76
2022/12/13 01:08:28;;;;;;;;;;;;;;;;;;1031253;28;19976;-78
2022/12/13 01:08:59;;;;;;;;;;;;;;;;;;1030778;28;19917;-78
2022/12/13 01:09:31;;;;;;;;;;;;;;;;;;1035154;28;20410;-77
2022/12/13 01:10:02;;;;;;;;;;;;;;;;;;1035411;28;20004;-77
2022/12/13 01:10:33;;;;;;;;;;;;;;;;;;1035795;28;20004;-76
2022/12/13 01:11:03;;;;;;;;;;;;;;;;;;1035193;28;19909;-77
2022/12/13 01:11:34;;;;;;;;;;;;;;;;;;1035529;28;19960;-77
2022/12/13 01:12:05;;;;;;;;;;;;;;;;;;1035618;28;20280;-75
2022/12/13 01:12:36;;;;;;;;;;;;;;;;;;1035654;28;19910;-76
2022/12/13 01:13:07;;;;;;;;;;;;;;;;;;1031858;28;19917;-75
2022/12/13 01:13:38;;;;;;;;;;;;;;;;;;1035316;28;19921;-76
2022/12/13 01:14:09;;;;;;;;;;;;;;;;;;1035381;28;19999;-76
2022/12/13 01:14:40;;;;;;;;;;;;;;;;;;1031866;28;19906;-76
2022/12/13 01:15:11;;;;;;;;;;;;;;;;;;1035362;28;19916;-77
2022/12/13 01:15:42;;;;;;;;;;;;;;;;;;1035701;28;19917;-77
2022/12/13 01:16:13;;;;;;;;;;;;;;;;;;1038463;28;20743;-77
2022/12/13 01:16:44;;;;;;;;;;;;;;;;;;1035288;28;19940;-78
2022/12/13 01:17:14;;;;;;;;;;;;;;;;;;1033515;28;19910;-77
2022/12/13 01:17:46;;;;;;;;;;;;;;;;;;1029672;28;19941;-78
2022/12/13 01:18:17;;;;;;;;;;;;;;;;;;1027614;28;20365;-76
2022/12/13 01:18:48;;;;;;;;;;;;;;;;;;1031629;28;20451;-78
2022/12/13 01:19:18;;;;;;;;;;;;;;;;;;1031344;28;19918;-78
2022/12/13 01:19:49;;;;;;;;;;;;;;;;;;1035636;28;20408;-77
2022/12/13 01:20:20;;;;;;;;;;;;;;;;;;1035671;28;20348;-77
2022/12/13 01:20:51;;;;;;;;;;;;;;;;;;1035774;28;19966;-76
2022/12/13 01:21:23;;;;;;;;;;;;;;;;;;1035304;28;19910;-77
2022/12/13 01:21:54;;;;;;;;;;;;;;;;;;1035397;28;19913;-78
2022/12/13 01:22:25;;;;;;;;;;;;;;;;;;1031592;28;19941;-76
2022/12/13 01:22:56;;;;;;;;;;;;;;;;;;1031562;28;19914;-77
2022/12/13 01:23:27;;;;;;;;;;;;;;;;;;1031236;28;19916;-77
2022/12/13 01:23:58;;;;;;;;;;;;;;;;;;1027402;28;19941;-77
2022/12/13 01:24:29;;;;;;;;;;;;;;;;;;1027269;28;20077;-77
2022/12/13 01:24:59;;;;;;;;;;;;;;;;;;1026860;28;20329;-77
2022/12/13 01:25:32;;;;;;;;;;;;;;;;;;1027671;28;20480;-77
2022/12/13 01:26:03;;;;;;;;;;;;;;;;;;1031947;28;19921;-76
2022/12/13 01:26:34;;;;;;;;;;;;;;;;;;1035170;28;19964;-78
2022/12/13 01:27:05;;;;;;;;;;;;;;;;;;1035083;28;19952;-76
2022/12/13 01:27:35;;;;;;;;;;;;;;;;;;1039547;28;19913;-77
2022/12/13 01:28:06;;;;;;;;;;;;;;;;;;1039297;28;19928;-77
2022/12/13 01:28:37;;;;;;;;;;;;;;;;;;1035240;28;20012;-78
2022/12/13 01:29:10;;;;;;;;;;;;;;;;;;1035395;28;19933;-77
2022/12/13 01:29:41;;;;;;;;;;;;;;;;;;1034959;28;19913;-77
2022/12/13 01:30:11;;;;;;;;;;;;;;;;;;1035759;28;20008;-77
2022/12/13 01:30:42;;;;;;;;;;;;;;;;;;1031308;28;19913;-79
2022/12/13 01:31:13;;;;;;;;;;;;;;;;;;1035670;28;20416;-77
2022/12/13 01:31:44;;;;;;;;;;;;;;;;;;1031995;28;19995;-76
2022/12/13 01:32:15;;;;;;;;;;;;;;;;;;1034033;28;20451;-77
2022/12/13 01:32:46;;;;;;;;;;;;;;;;;;1031552;28;20368;-76
2022/12/13 01:33:17;;;;;;;;;;;;;;;;;;1027535;28;19977;-78
2022/12/13 01:33:48;;;;;;;;;;;;;;;;;;1027497;28;20000;-77
2022/12/13 01:34:18;;;;;;;;;;;;;;;;;;1027144;28;19914;-77
2022/12/13 01:34:49;;;;;;;;;;;;;;;;;;1027368;28;19937;-78
2022/12/13 01:35:20;;;;;;;;;;;;;;;;;;1033753;28;20008;-77
2022/12/13 01:35:51;;;;;;;;;;;;;;;;;;1031256;28;19910;-76
2022/12/13 01:36:22;;;;;;;;;;;;;;;;;;1030872;28;20340;-77
2022/12/13 01:36:53;;;;;;;;;;;;;;;;;;1031259;28;20352;-76
2022/12/13 01:37:24;;;;;;;;;;;;;;;;;;1031356;28;19921;-77
2022/12/13 01:37:55;;;;;;;;;;;;;;;;;;1032049;28;19917;-77
2022/12/13 01:38:25;;;;;;;;;;;;;;;;;;1035223;28;19916;-77
2022/12/13 01:38:56;;;;;;;;;;;;;;;;;;1039122;28;20000;-77
2022/12/13 01:39:27;;;;;;;;;;;;;;;;;;1039551;28;19916;-77
2022/12/13 01:39:58;;;;;;;;;;;;;;;;;;1035371;28;19913;-79
2022/12/13 01:40:29;;;;;;;;;;;;;;;;;;1031625;28;20016;-77
2022/12/13 01:41:00;;;;;;;;;;;;;;;;;;1027480;28;19911;-76
2022/12/13 01:41:31;;;;;;;;;;;;;;;;;;1031625;28;19914;-77
2022/12/13 01:42:02;;;;;;;;;;;;;;;;;;1035742;28;19935;-76
2022/12/13 01:42:33;;;;;;;;;;;;;;;;;;1039632;28;19909;-76
2022/12/13 01:43:04;;;;;;;;;;;;;;;;;;1039729;28;19944;-77
2022/12/13 01:43:34;;;;;;;;;;;;;;;;;;1039324;28;19967;-76
2022/12/13 01:44:05;;;;;;;;;;;;;;;;;;1034925;28;19970;-77
2022/12/13 01:44:36;;;;;;;;;;;;;;;;;;1031428;28;20009;-78
2022/12/13 01:45:07;;;;;;;;;;;;;;;;;;1031252;28;19918;-77
2022/12/13 01:45:38;;;;;;;;;;;;;;;;;;1031795;28;20472;-78
2022/12/13 01:46:09;;;;;;;;;;;;;;;;;;1031388;28;19992;-77
2022/12/13 01:46:40;;;;;;;;;;;;;;;;;;1035396;28;20272;-76
2022/12/13 01:47:10;;;;;;;;;;;;;;;;;;1037378;28;19909;-76
2022/12/13 01:47:42;;;;;;;;;;;;;;;;;;1035304;28;19910;-78
2022/12/13 01:48:13;;;;;;;;;;;;;;;;;;1031914;28;19910;-76
2022/12/13 01:48:44;;;;;;;;;;;;;;;;;;1031162;28;19913;-76
2022/12/13 01:49:14;;;;;;;;;;;;;;;;;;1031447;28;20008;-75
2022/12/13 01:49:45;;;;;;;;;;;;;;;;;;1031571;28;19921;-79
2022/12/13 01:50:16;;;;;;;;;;;;;;;;;;1031083;28;19921;-77
2022/12/13 01:50:47;;;;;;;;;;;;;;;;;;1028009;28;19917;-76
2022/12/13 01:51:18;;;;;;;;;;;;;;;;;;1035284;28;20285;-76
2022/12/13 01:51:49;;;;;;;;;;;;;;;;;;1031217;28;20384;-76
2022/12/13 01:52:20;;;;;;;;;;;;;;;;;;1031919;28;19995;-76
2022/12/13 01:52:51;;;;;;;;;;;;;;;;;;1035414;28;20520;-77
2022/12/13 01:53:22;;;;;;;;;;;;;;;;;;1035921;28;20455;-77
2022/12/13 01:53:53;;;;;;;;;;;;;;;;;;1039727;28;19913;-77
2022/12/13 01:54:24;;;;;;;;;;;;;;;;;;1039978;28;20448;-77
2022/12/13 01:54:55;;;;;;;;;;;;;;;;;;1035363;28;19920;-78
2022/12/13 01:55:26;;;;;;;;;;;;;;;;;;1035377;28;19920;-77
2022/12/13 01:55:57;;;;;;;;;;;;;;;;;;1035580;28;19920;-78
2022/12/13 01:56:27;;;;;;;;;;;;;;;;;;1031415;28;19917;-77
2022/12/13 01:56:58;;;;;;;;;;;;;;;;;;1031291;28;19910;-77
2022/12/13 01:57:29;;;;;;;;;;;;;;;;;;1032172;28;19910;-76
2022/12/13 01:58:00;;;;;;;;;;;;;;;;;;1031200;28;19914;-74
2022/12/13 01:58:31;;;;;;;;;;;;;;;;;;1031563;28;19987;-77
2022/12/13 01:59:02;;;;;;;;;;;;;;;;;;1031378;28;19914;-77
2022/12/13 01:59:34;;;;;;;;;;;;;;;;;;1031524;28;19913;-78
2022/12/13 02:00:05;;;;;;;;;;;;;;;;;;1036515;28;20002;-78
2022/12/13 02:00:35;;;;;;;;;;;;;;;;;;1039160;28;19985;-77
2022/12/13 02:01:06;;;;;;;;;;;;;;;;;;1039964;28;19913;-78
2022/12/13 02:01:37;;;;;;;;;;;;;;;;;;1034917;28;19967;-76
2022/12/13 02:02:08;;;;;;;;;;;;;;;;;;1031162;28;19964;-76
2022/12/13 02:02:39;;;;;;;;;;;;;;;;;;1030975;28;19938;-76
2022/12/13 02:03:10;;;;;;;;;;;;;;;;;;1031533;28;19992;-77
2022/12/13 02:03:41;;;;;;;;;;;;;;;;;;1035643;28;19944;-77
2022/12/13 02:04:12;;;;;;;;;;;;;;;;;;1031140;28;20408;-77
2022/12/13 02:04:43;;;;;;;;;;;;;;;;;;1033223;28;19910;-77
2022/12/13 02:05:14;;;;;;;;;;;;;;;;;;1035600;28;20379;-77
2022/12/13 02:05:45;;;;;;;;;;;;;;;;;;1035161;28;19905;-78
2022/12/13 02:06:15;;;;;;;;;;;;;;;;;;1039857;28;19981;-78
2022/12/13 02:06:46;;;;;;;;;;;;;;;;;;1039781;28;19909;-78
2022/12/13 02:07:17;;;;;;;;;;;;;;;;;;1035212;28;20383;-76
2022/12/13 02:07:48;;;;;;;;;;;;;;;;;;1035210;28;19917;-77
2022/12/13 02:08:19;;;;;;;;;;;;;;;;;;1035358;28;19910;-77
2022/12/13 02:08:50;;;;;;;;;;;;;;;;;;1035766;28;19959;-76
2022/12/13 02:09:21;;;;;;;;;;;;;;;;;;1031444;28;20388;-78
2022/12/13 02:09:52;;;;;;;;;;;;;;;;;;1031116;28;19914;-77
2022/12/13 02:10:22;;;;;;;;;;;;;;;;;;1031514;28;19910;-76
2022/12/13 02:10:53;;;;;;;;;;;;;;;;;;1031237;28;19910;-76
2022/12/13 02:11:24;;;;;;;;;;;;;;;;;;1035690;28;19909;-77
2022/12/13 02:11:55;;;;;;;;;;;;;;;;;;1032152;28;19962;-78
2022/12/13 02:12:26;;;;;;;;;;;;;;;;;;1032143;28;19914;-77
2022/12/13 02:12:57;;;;;;;;;;;;;;;;;;1031448;28;20029;-76
2022/12/13 02:13:28;;;;;;;;;;;;;;;;;;1034124;28;19910;-77
2022/12/13 02:13:59;;;;;;;;;;;;;;;;;;1039307;28;19967;-76
2022/12/13 02:14:30;;;;;;;;;;;;;;;;;;1036501;28;19960;-78
2022/12/13 02:15:01;;;;;;;;;;;;;;;;;;1037889;28;20260;-75
2022/12/13 02:15:32;;;;;;;;;;;;;;;;;;1036113;28;19945;-76
2022/12/13 02:16:02;;;;;;;;;;;;;;;;;;1035929;28;19970;-76
2022/12/13 02:16:33;;;;;;;;;;;;;;;;;;1036243;28;20357;-78
2022/12/13 02:17:04;;;;;;;;;;;;;;;;;;1032188;28;19913;-77
2022/12/13 02:17:35;;;;;;;;;;;;;;;;;;1031882;28;19996;-78
2022/12/13 02:18:06;;;;;;;;;;;;;;;;;;1031997;28;20590;-76
2022/12/13 02:18:37;;;;;;;;;;;;;;;;;;1032532;28;19957;-76
2022/12/13 02:19:08;;;;;;;;;;;;;;;;;;1032101;28;19945;-75
2022/12/13 02:19:39;;;;;;;;;;;;;;;;;;1036367;28;19913;-75
2022/12/13 02:20:09;;;;;;;;;;;;;;;;;;1035296;28;19967;-77
2022/12/13 02:20:40;;;;;;;;;;;;;;;;;;1035800;28;20384;-77
2022/12/13 02:21:11;;;;;;;;;;;;;;;;;;1036065;28;19925;-78
2022/12/13 02:21:42;;;;;;;;;;;;;;;;;;1035919;28;20351;-76
2022/12/13 02:22:13;;;;;;;;;;;;;;;;;;1036674;28;19910;-76
2022/12/13 02:22:44;;;;;;;;;;;;;;;;;;1035946;28;19914;-76
2022/12/13 02:23:15;;;;;;;;;;;;;;;;;;1035971;28;20015;-78
2022/12/13 02:23:45;;;;;;;;;;;;;;;;;;1036008;28;19920;-76
2022/12/13 02:24:16;;;;;;;;;;;;;;;;;;1035818;28;20133;-77
2022/12/13 02:24:47;;;;;;;;;;;;;;;;;;1032451;28;19956;-77
2022/12/13 02:25:18;;;;;;;;;;;;;;;;;;1032126;28;19949;-77
2022/12/13 02:25:49;;;;;;;;;;;;;;;;;;1035850;28;20017;-78
2022/12/13 02:26:20;;;;;;;;;;;;;;;;;;1040183;28;19913;-77
2022/12/13 02:26:51;;;;;;;;;;;;;;;;;;1035723;28;19913;-76
2022/12/13 02:27:22;;;;;;;;;;;;;;;;;;1032778;28;19910;-77
2022/12/13 02:27:53;;;;;;;;;;;;;;;;;;1031890;28;20341;-77
2022/12/13 02:28:24;;;;;;;;;;;;;;;;;;1032248;28;20296;-77
2022/12/13 02:28:55;;;;;;;;;;;;;;;;;;1035757;28;20404;-77
2022/12/13 02:29:25;;;;;;;;;;;;;;;;;;1036833;28;19941;-77
2022/12/13 02:29:56;;;;;;;;;;;;;;;;;;1036367;28;20356;-78
2022/12/13 02:30:28;;;;;;;;;;;;;;;;;;1032907;28;19924;-77
2022/12/13 02:30:59;;;;;;;;;;;;;;;;;;1031868;28;20349;-77
2022/12/13 02:31:29;;;;;;;;;;;;;;;;;;1032459;28;20460;-77
2022/12/13 02:32:00;;;;;;;;;;;;;;;;;;1039223;28;19925;-77
2022/12/13 02:32:31;;;;;;;;;;;;;;;;;;1036653;28;19964;-77
2022/12/13 02:33:02;;;;;;;;;;;;;;;;;;1031603;28;20479;-79
2022/12/13 02:33:33;;;;;;;;;;;;;;;;;;1031967;28;20365;-78
2022/12/13 02:34:04;;;;;;;;;;;;;;;;;;1032171;28;20024;-78
2022/12/13 02:34:35;;;;;;;;;;;;;;;;;;1036314;28;19957;-78
2022/12/13 02:35:06;;;;;;;;;;;;;;;;;;1036531;28;19916;-77
2022/12/13 02:35:37;;;;;;;;;;;;;;;;;;1035847;28;20581;-77
2022/12/13 02:36:07;;;;;;;;;;;;;;;;;;1031963;28;20470;-77
2022/12/13 02:36:38;;;;;;;;;;;;;;;;;;1031122;28;20013;-77
2022/12/13 02:37:09;;;;;;;;;;;;;;;;;;1031731;28;20373;-77
2022/12/13 02:37:40;;;;;;;;;;;;;;;;;;1032858;28;19932;-77
2022/12/13 02:38:11;;;;;;;;;;;;;;;;;;1035983;28;20751;-77
2022/12/13 02:38:43;;;;;;;;;;;;;;;;;;1027857;28;19914;-77
2022/12/13 02:39:14;;;;;;;;;;;;;;;;;;1032149;28;19961;-77
2022/12/13 02:39:45;;;;;;;;;;;;;;;;;;1034655;28;19997;-78
2022/12/13 02:40:16;;;;;;;;;;;;;;;;;;1036090;28;19913;-79
2022/12/13 02:40:47;;;;;;;;;;;;;;;;;;1032080;28;19976;-77
2022/12/13 02:41:17;;;;;;;;;;;;;;;;;;1028157;28;20425;-77
2022/12/13 02:41:48;;;;;;;;;;;;;;;;;;1031921;28;19918;-77
2022/12/13 02:42:19;;;;;;;;;;;;;;;;;;1031642;28;20349;-77
2022/12/13 02:42:50;;;;;;;;;;;;;;;;;;1033098;28;19981;-78
2022/12/13 02:43:21;;;;;;;;;;;;;;;;;;1033380;28;20384;-77
2022/12/13 02:43:52;;;;;;;;;;;;;;;;;;1031814;28;19914;-77
2022/12/13 02:44:23;;;;;;;;;;;;;;;;;;1031780;28;19968;-77
2022/12/13 02:44:53;;;;;;;;;;;;;;;;;;1032091;28;19914;-77
2022/12/13 02:45:24;;;;;;;;;;;;;;;;;;1032987;28;20008;-78
2022/12/13 02:45:55;;;;;;;;;;;;;;;;;;1035964;28;19979;-77
2022/12/13 02:46:26;;;;;;;;;;;;;;;;;;1036051;28;19913;-78
2022/12/13 02:46:57;;;;;;;;;;;;;;;;;;1035855;28;19921;-77
2022/12/13 02:47:28;;;;;;;;;;;;;;;;;;1035924;28;20284;-78
2022/12/13 02:47:59;;;;;;;;;;;;;;;;;;1036399;28;20023;-78
2022/12/13 02:48:31;;;;;;;;;;;;;;;;;;1036270;28;19913;-77
2022/12/13 02:49:01;;;;;;;;;;;;;;;;;;1033345;28;19941;-77
2022/12/13 02:49:32;;;;;;;;;;;;;;;;;;1036885;28;20008;-78
2022/12/13 02:50:03;;;;;;;;;;;;;;;;;;1040571;28;19913;-77
2022/12/13 02:50:34;;;;;;;;;;;;;;;;;;1039812;28;19919;-80
2022/12/13 02:51:05;;;;;;;;;;;;;;;;;;1034855;28;19917;-77
2022/12/13 02:51:36;;;;;;;;;;;;;;;;;;1036441;28;20225;-77
2022/12/13 02:52:07;;;;;;;;;;;;;;;;;;1035811;28;19945;-77
2022/12/13 02:52:37;;;;;;;;;;;;;;;;;;1036079;28;20312;-77
2022/12/13 02:53:08;;;;;;;;;;;;;;;;;;1036861;28;19985;-77
2022/12/13 02:53:40;;;;;;;;;;;;;;;;;;1036431;28;19914;-76
2022/12/13 02:54:11;;;;;;;;;;;;;;;;;;1035832;28;20015;-77
2022/12/13 02:54:41;;;;;;;;;;;;;;;;;;1035955;28;19975;-77
2022/12/13 02:55:12;;;;;;;;;;;;;;;;;;1035924;28;19940;-79
2022/12/13 02:55:43;;;;;;;;;;;;;;;;;;1036814;28;19913;-77
2022/12/13 02:56:14;;;;;;;;;;;;;;;;;;1035419;28;20024;-78
2022/12/13 02:56:45;;;;;;;;;;;;;;;;;;1035973;28;19913;-75
2022/12/13 02:57:16;;;;;;;;;;;;;;;;;;1035836;28;19913;-78
2022/12/13 02:57:47;;;;;;;;;;;;;;;;;;1031982;28;19916;-77
2022/12/13 02:58:18;;;;;;;;;;;;;;;;;;1035042;28;19953;-77
2022/12/13 02:58:49;;;;;;;;;;;;;;;;;;1036028;28;19980;-76
2022/12/13 02:59:20;;;;;;;;;;;;;;;;;;1032182;28;20623;-76
2022/12/13 02:59:50;;;;;;;;;;;;;;;;;;1031964;28;19910;-77
2022/12/13 03:00:21;;;;;;;;;;;;;;;;;;1031796;28;20433;-78
2022/12/13 03:00:52;;;;;;;;;;;;;;;;;;1033069;28;19941;-77
2022/12/13 03:01:23;;;;;;;;;;;;;;;;;;1032140;28;20288;-78
2022/12/13 03:01:54;;;;;;;;;;;;;;;;;;1032073;28;19910;-77
2022/12/13 03:02:25;;;;;;;;;;;;;;;;;;1031776;28;20345;-77
2022/12/13 03:02:56;;;;;;;;;;;;;;;;;;1032101;28;20008;-77
2022/12/13 03:03:27;;;;;;;;;;;;;;;;;;1033085;28;19914;-77
2022/12/13 03:03:57;;;;;;;;;;;;;;;;;;1035993;28;20008;-78
2022/12/13 03:04:28;;;;;;;;;;;;;;;;;;1040296;28;19960;-76
2022/12/13 03:06:38;;;;;;;;;;;;;;;;;;1040464;28;19963;-78
2022/12/13 03:07:09;;;;;;;;;;;;;;;;;;1035851;28;19913;-77
2022/12/13 03:07:40;;;;;;;;;;;;;;;;;;1035906;28;19910;-77
2022/12/13 03:08:11;;;;;;;;;;;;;;;;;;1031894;28;19949;-78
2022/12/13 03:08:42;;;;;;;;;;;;;;;;;;1032631;28;19921;-78
2022/12/13 03:09:13;;;;;;;;;;;;;;;;;;1036166;28;19913;-77
2022/12/13 03:09:44;;;;;;;;;;;;;;;;;;1036101;28;19913;-77
2022/12/13 03:10:16;;;;;;;;;;;;;;;;;;1040589;28;19948;-78
2022/12/13 03:10:46;;;;;;;;;;;;;;;;;;1040359;28;20046;-78
2022/12/13 03:11:17;;;;;;;;;;;;;;;;;;1036718;28;19913;-77
2022/12/13 03:13:37;;;;;;;;;;;;;;;;;;1040555;28;20629;-77
2022/12/13 03:14:08;;;;;;;;;;;;;;;;;;1036734;28;19910;-77
2022/12/13 03:14:39;;;;;;;;;;;;;;;;;;1035782;28;19921;-77
2022/12/13 03:15:10;;;;;;;;;;;;;;;;;;1031405;28;19914;-77
2022/12/13 03:15:41;;;;;;;;;;;;;;;;;;1032176;28;19910;-77
2022/12/13 03:16:12;;;;;;;;;;;;;;;;;;1031661;28;19914;-76
2022/12/13 03:16:43;;;;;;;;;;;;;;;;;;1033218;28;19914;-78
2022/12/13 03:17:13;;;;;;;;;;;;;;;;;;1031931;28;19914;-77
2022/12/13 03:17:44;;;;;;;;;;;;;;;;;;1031787;28;19958;-77
2022/12/13 03:18:15;;;;;;;;;;;;;;;;;;1031860;28;19909;-76
2022/12/13 03:18:46;;;;;;;;;;;;;;;;;;1032013;28;19956;-77
2022/12/13 03:19:17;;;;;;;;;;;;;;;;;;1032387;28;19914;-77
2022/12/13 03:19:48;;;;;;;;;;;;;;;;;;1036157;28;19947;-77
2022/12/13 03:20:19;;;;;;;;;;;;;;;;;;1032272;28;19921;-76
2022/12/13 03:20:50;;;;;;;;;;;;;;;;;;1031839;28;20289;-77
2022/12/13 03:21:20;;;;;;;;;;;;;;;;;;1031862;28;19997;-77
2022/12/13 03:21:51;;;;;;;;;;;;;;;;;;1028299;28;20313;-77
2022/12/13 03:22:22;;;;;;;;;;;;;;;;;;1028033;28;19968;-78
2022/12/13 03:22:53;;;;;;;;;;;;;;;;;;1031375;28;20411;-77
2022/12/13 03:23:24;;;;;;;;;;;;;;;;;;1031667;28;20055;-77
2022/12/13 03:23:55;;;;;;;;;;;;;;;;;;1036224;28;19909;-78
2022/12/13 03:24:26;;;;;;;;;;;;;;;;;;1037009;28;19941;-77
2022/12/13 03:24:57;;;;;;;;;;;;;;;;;;1036660;28;19963;-78
2022/12/13 03:25:27;;;;;;;;;;;;;;;;;;1040336;28;19909;-77
2022/12/13 03:25:58;;;;;;;;;;;;;;;;;;1040184;28;19956;-76
2022/12/13 03:26:29;;;;;;;;;;;;;;;;;;1039738;28;19909;-77
2022/12/13 03:27:00;;;;;;;;;;;;;;;;;;1036544;28;19909;-77
2022/12/13 03:27:31;;;;;;;;;;;;;;;;;;1036004;28;20462;-77
2022/12/13 03:28:02;;;;;;;;;;;;;;;;;;1036050;28;19909;-77
2022/12/13 03:28:33;;;;;;;;;;;;;;;;;;1034265;28;19917;-76
2022/12/13 03:29:03;;;;;;;;;;;;;;;;;;1040161;28;19920;-75
2022/12/13 03:29:34;;;;;;;;;;;;;;;;;;1040808;28;20000;-77
2022/12/13 03:30:05;;;;;;;;;;;;;;;;;;1035606;28;19913;-78
2022/12/13 03:30:36;;;;;;;;;;;;;;;;;;1031625;28;19921;-79
2022/12/13 03:31:07;;;;;;;;;;;;;;;;;;1031758;28;19912;-78
2022/12/13 03:31:38;;;;;;;;;;;;;;;;;;1031965;28;19909;-80
2022/12/13 03:32:09;;;;;;;;;;;;;;;;;;1036913;28;20455;-77
2022/12/13 03:32:40;;;;;;;;;;;;;;;;;;1035623;28;20663;-77
2022/12/13 03:33:11;;;;;;;;;;;;;;;;;;1035814;28;19909;-76
2022/12/13 03:33:42;;;;;;;;;;;;;;;;;;1035714;28;19996;-76
2022/12/13 03:34:13;;;;;;;;;;;;;;;;;;1036012;28;20419;-76
2022/12/13 03:34:44;;;;;;;;;;;;;;;;;;1036320;28;19924;-76